sensor_id;sensor_type;location;lat;lon;timestamp;P1;durP1;ratioP1;P2;durP2;ratioP2
1296;SDS011;641;48.492;9.184;2023-08-12T00:00:06;11.30;;;5.50;;
1296;SDS011;641;48.492;9.184;2023-08-12T00:02:38;10.80;;;4.50;;
1296;SDS011;641;48.492;9.184;2023-08-12T00:05:05;11.23;;;4.93;;
1296;SDS011;641;48.492;9.184;2023-08-12T00:07:32;10.93;;;4.90;;
1296;SDS011;641;48.492;9.184;2023-08-12T00:09:58;9.70;;;4.80;;
1296;SDS011;641;48.492;9.184;2023-08-12T00:12:24;8.57;;;4.03;;
1296;SDS011;641;48.492;9.184;2023-08-12T00:14:50;11.80;;;4.90;;
1296;SDS011;641;48.492;9.184;2023-08-12T00:17:16;9.10;;;4.17;;
1296;SDS011;641;48.492;9.184;2023-08-12T00:19:42;14.47;;;4.97;;
1296;SDS011;641;48.492;9.184;2023-08-12T00:22:07;10.90;;;5.20;;
1296;SDS011;641;48.492;9.184;2023-08-12T00:24:33;12.07;;;4.87;;
1296;SDS011;641;48.492;9.184;2023-08-12T00:26:58;10.20;;;4.90;;
1296;SDS011;641;48.492;9.184;2023-08-12T00:29:24;11.60;;;5.07;;
1296;SDS011;641;48.492;9.184;2023-08-12T00:31:49;11.10;;;4.47;;
1296;SDS011;641;48.492;9.184;2023-08-12T00:34:15;10.23;;;4.40;;
1296;SDS011;641;48.492;9.184;2023-08-12T00:36:41;10.37;;;5.20;;
1296;SDS011;641;48.492;9.184;2023-08-12T00:39:07;10.40;;;5.10;;
1296;SDS011;641;48.492;9.184;2023-08-12T00:41:33;9.87;;;4.43;;
1296;SDS011;641;48.492;9.184;2023-08-12T00:43:58;11.57;;;5.17;;
1296;SDS011;641;48.492;9.184;2023-08-12T00:46:24;10.67;;;4.60;;
1296;SDS011;641;48.492;9.184;2023-08-12T00:48:49;9.70;;;4.40;;
1296;SDS011;641;48.492;9.184;2023-08-12T00:51:16;9.10;;;4.30;;
1296;SDS011;641;48.492;9.184;2023-08-12T00:53:42;11.17;;;4.20;;
1296;SDS011;641;48.492;9.184;2023-08-12T00:56:08;9.67;;;4.73;;
1296;SDS011;641;48.492;9.184;2023-08-12T00:58:34;8.70;;;4.03;;
1296;SDS011;641;48.492;9.184;2023-08-12T01:01:00;10.20;;;3.93;;
1296;SDS011;641;48.492;9.184;2023-08-12T01:03:27;8.80;;;4.00;;
1296;SDS011;641;48.492;9.184;2023-08-12T01:05:52;11.90;;;4.30;;
1296;SDS011;641;48.492;9.184;2023-08-12T01:08:18;9.87;;;5.23;;
1296;SDS011;641;48.492;9.184;2023-08-12T01:10:49;11.50;;;5.03;;
1296;SDS011;641;48.492;9.184;2023-08-12T01:13:29;8.97;;;4.47;;
1296;SDS011;641;48.492;9.184;2023-08-12T01:16:00;9.47;;;4.80;;
1296;SDS011;641;48.492;9.184;2023-08-12T01:18:28;10.77;;;4.77;;
1296;SDS011;641;48.492;9.184;2023-08-12T01:20:54;11.23;;;4.37;;
1296;SDS011;641;48.492;9.184;2023-08-12T01:23:20;10.60;;;4.07;;
1296;SDS011;641;48.492;9.184;2023-08-12T01:25:46;9.30;;;4.40;;
1296;SDS011;641;48.492;9.184;2023-08-12T01:28:11;11.03;;;4.90;;
1296;SDS011;641;48.492;9.184;2023-08-12T01:30:47;9.53;;;4.37;;
1296;SDS011;641;48.492;9.184;2023-08-12T01:33:25;9.63;;;4.10;;
1296;SDS011;641;48.492;9.184;2023-08-12T01:36:00;9.23;;;4.50;;
1296;SDS011;641;48.492;9.184;2023-08-12T01:38:34;10.23;;;4.40;;
1296;SDS011;641;48.492;9.184;2023-08-12T01:41:02;11.43;;;4.77;;
1296;SDS011;641;48.492;9.184;2023-08-12T01:43:28;9.93;;;5.30;;
1296;SDS011;641;48.492;9.184;2023-08-12T01:45:54;11.50;;;4.73;;
1296;SDS011;641;48.492;9.184;2023-08-12T01:48:20;11.47;;;5.10;;
1296;SDS011;641;48.492;9.184;2023-08-12T01:50:48;11.43;;;4.27;;
1296;SDS011;641;48.492;9.184;2023-08-12T01:53:13;11.27;;;4.37;;
1296;SDS011;641;48.492;9.184;2023-08-12T01:55:42;10.17;;;4.90;;
1296;SDS011;641;48.492;9.184;2023-08-12T01:58:09;10.73;;;4.60;;
1296;SDS011;641;48.492;9.184;2023-08-12T02:00:34;10.00;;;5.30;;
1296;SDS011;641;48.492;9.184;2023-08-12T02:03:00;8.37;;;4.20;;
1296;SDS011;641;48.492;9.184;2023-08-12T02:05:25;10.60;;;4.40;;
1296;SDS011;641;48.492;9.184;2023-08-12T02:07:51;9.53;;;4.53;;
1296;SDS011;641;48.492;9.184;2023-08-12T02:10:17;9.93;;;4.50;;
1296;SDS011;641;48.492;9.184;2023-08-12T02:12:42;13.07;;;4.87;;
1296;SDS011;641;48.492;9.184;2023-08-12T02:15:08;10.00;;;4.90;;
1296;SDS011;641;48.492;9.184;2023-08-12T02:17:34;9.47;;;4.90;;
1296;SDS011;641;48.492;9.184;2023-08-12T02:20:00;9.80;;;4.90;;
1296;SDS011;641;48.492;9.184;2023-08-12T02:22:25;9.73;;;4.63;;
1296;SDS011;641;48.492;9.184;2023-08-12T02:24:51;9.77;;;4.67;;
1296;SDS011;641;48.492;9.184;2023-08-12T02:27:16;13.60;;;4.17;;
1296;SDS011;641;48.492;9.184;2023-08-12T02:29:42;9.70;;;5.03;;
1296;SDS011;641;48.492;9.184;2023-08-12T02:32:08;10.40;;;5.50;;
1296;SDS011;641;48.492;9.184;2023-08-12T02:34:33;10.57;;;4.90;;
1296;SDS011;641;48.492;9.184;2023-08-12T02:36:59;10.60;;;4.20;;
1296;SDS011;641;48.492;9.184;2023-08-12T02:39:25;9.57;;;4.70;;
1296;SDS011;641;48.492;9.184;2023-08-12T02:41:50;8.90;;;4.50;;
1296;SDS011;641;48.492;9.184;2023-08-12T02:44:16;10.10;;;4.70;;
1296;SDS011;641;48.492;9.184;2023-08-12T02:46:42;13.20;;;5.30;;
1296;SDS011;641;48.492;9.184;2023-08-12T02:49:07;10.70;;;5.00;;
1296;SDS011;641;48.492;9.184;2023-08-12T02:51:33;9.87;;;4.97;;
1296;SDS011;641;48.492;9.184;2023-08-12T02:53:59;10.00;;;5.37;;
1296;SDS011;641;48.492;9.184;2023-08-12T02:56:24;9.53;;;4.47;;
1296;SDS011;641;48.492;9.184;2023-08-12T02:58:50;10.40;;;4.77;;
1296;SDS011;641;48.492;9.184;2023-08-12T03:01:15;10.10;;;4.67;;
1296;SDS011;641;48.492;9.184;2023-08-12T03:03:41;9.80;;;4.90;;
1296;SDS011;641;48.492;9.184;2023-08-12T03:06:07;10.47;;;4.60;;
1296;SDS011;641;48.492;9.184;2023-08-12T03:08:32;9.63;;;4.47;;
1296;SDS011;641;48.492;9.184;2023-08-12T03:10:58;12.67;;;5.10;;
1296;SDS011;641;48.492;9.184;2023-08-12T03:13:25;9.63;;;4.57;;
1296;SDS011;641;48.492;9.184;2023-08-12T03:15:51;9.93;;;4.60;;
1296;SDS011;641;48.492;9.184;2023-08-12T03:18:16;9.07;;;4.47;;
1296;SDS011;641;48.492;9.184;2023-08-12T03:20:42;10.67;;;4.80;;
1296;SDS011;641;48.492;9.184;2023-08-12T03:23:07;11.03;;;4.57;;
1296;SDS011;641;48.492;9.184;2023-08-12T03:25:33;9.60;;;4.97;;
1296;SDS011;641;48.492;9.184;2023-08-12T03:27:58;11.83;;;6.03;;
1296;SDS011;641;48.492;9.184;2023-08-12T03:30:24;13.13;;;5.53;;
1296;SDS011;641;48.492;9.184;2023-08-12T03:32:51;11.50;;;4.93;;
1296;SDS011;641;48.492;9.184;2023-08-12T03:35:17;10.37;;;5.77;;
1296;SDS011;641;48.492;9.184;2023-08-12T03:37:42;10.53;;;4.80;;
1296;SDS011;641;48.492;9.184;2023-08-12T03:40:08;9.90;;;5.50;;
1296;SDS011;641;48.492;9.184;2023-08-12T03:42:34;10.13;;;4.93;;
1296;SDS011;641;48.492;9.184;2023-08-12T03:44:59;19.33;;;5.40;;
1296;SDS011;641;48.492;9.184;2023-08-12T03:47:25;12.00;;;5.30;;
1296;SDS011;641;48.492;9.184;2023-08-12T03:49:50;14.37;;;5.33;;
1296;SDS011;641;48.492;9.184;2023-08-12T03:52:16;11.57;;;5.20;;
1296;SDS011;641;48.492;9.184;2023-08-12T03:54:42;10.93;;;5.50;;
1296;SDS011;641;48.492;9.184;2023-08-12T03:57:07;9.73;;;5.37;;
1296;SDS011;641;48.492;9.184;2023-08-12T03:59:33;9.80;;;5.23;;
1296;SDS011;641;48.492;9.184;2023-08-12T04:01:59;9.93;;;4.57;;
1296;SDS011;641;48.492;9.184;2023-08-12T04:04:24;11.33;;;5.93;;
1296;SDS011;641;48.492;9.184;2023-08-12T04:06:50;11.40;;;4.80;;
1296;SDS011;641;48.492;9.184;2023-08-12T04:09:17;11.13;;;5.27;;
1296;SDS011;641;48.492;9.184;2023-08-12T04:11:43;9.60;;;4.83;;
1296;SDS011;641;48.492;9.184;2023-08-12T04:14:09;11.90;;;6.00;;
1296;SDS011;641;48.492;9.184;2023-08-12T04:16:34;10.93;;;5.40;;
1296;SDS011;641;48.492;9.184;2023-08-12T04:19:01;9.60;;;4.83;;
1296;SDS011;641;48.492;9.184;2023-08-12T04:21:27;10.50;;;5.20;;
1296;SDS011;641;48.492;9.184;2023-08-12T04:23:53;11.60;;;4.70;;
1296;SDS011;641;48.492;9.184;2023-08-12T04:26:18;13.13;;;5.53;;
1296;SDS011;641;48.492;9.184;2023-08-12T04:28:44;9.90;;;5.27;;
1296;SDS011;641;48.492;9.184;2023-08-12T04:31:09;12.20;;;5.30;;
1296;SDS011;641;48.492;9.184;2023-08-12T04:33:35;14.83;;;6.33;;
1296;SDS011;641;48.492;9.184;2023-08-12T04:36:00;10.90;;;5.00;;
1296;SDS011;641;48.492;9.184;2023-08-12T04:38:26;9.90;;;4.90;;
1296;SDS011;641;48.492;9.184;2023-08-12T04:40:52;11.33;;;4.97;;
1296;SDS011;641;48.492;9.184;2023-08-12T04:43:19;11.70;;;5.10;;
1296;SDS011;641;48.492;9.184;2023-08-12T04:45:45;10.53;;;5.17;;
1296;SDS011;641;48.492;9.184;2023-08-12T04:48:11;10.20;;;5.53;;
1296;SDS011;641;48.492;9.184;2023-08-12T04:50:37;9.50;;;4.73;;
1296;SDS011;641;48.492;9.184;2023-08-12T04:53:03;10.23;;;4.80;;
1296;SDS011;641;48.492;9.184;2023-08-12T04:55:30;9.47;;;4.30;;
1296;SDS011;641;48.492;9.184;2023-08-12T04:57:56;11.70;;;5.43;;
1296;SDS011;641;48.492;9.184;2023-08-12T05:00:22;9.40;;;4.23;;
1296;SDS011;641;48.492;9.184;2023-08-12T05:02:48;12.73;;;4.87;;
1296;SDS011;641;48.492;9.184;2023-08-12T05:05:13;10.30;;;5.07;;
1296;SDS011;641;48.492;9.184;2023-08-12T05:07:39;10.47;;;4.97;;
1296;SDS011;641;48.492;9.184;2023-08-12T05:10:05;13.30;;;4.73;;
1296;SDS011;641;48.492;9.184;2023-08-12T05:12:31;8.83;;;4.03;;
1296;SDS011;641;48.492;9.184;2023-08-12T05:14:56;9.47;;;4.80;;
1296;SDS011;641;48.492;9.184;2023-08-12T05:17:22;10.03;;;4.37;;
1296;SDS011;641;48.492;9.184;2023-08-12T05:19:47;12.37;;;4.37;;
1296;SDS011;641;48.492;9.184;2023-08-12T05:22:13;10.40;;;4.50;;
1296;SDS011;641;48.492;9.184;2023-08-12T05:24:38;11.70;;;5.40;;
1296;SDS011;641;48.492;9.184;2023-08-12T05:27:04;9.20;;;4.90;;
1296;SDS011;641;48.492;9.184;2023-08-12T05:29:32;8.83;;;4.20;;
1296;SDS011;641;48.492;9.184;2023-08-12T05:31:58;10.20;;;5.43;;
1296;SDS011;641;48.492;9.184;2023-08-12T05:34:23;9.90;;;4.93;;
1296;SDS011;641;48.492;9.184;2023-08-12T05:36:49;8.87;;;4.00;;
1296;SDS011;641;48.492;9.184;2023-08-12T05:39:14;10.13;;;4.80;;
1296;SDS011;641;48.492;9.184;2023-08-12T05:41:40;14.67;;;4.63;;
1296;SDS011;641;48.492;9.184;2023-08-12T05:44:06;11.00;;;4.90;;
1296;SDS011;641;48.492;9.184;2023-08-12T05:46:32;9.80;;;5.30;;
1296;SDS011;641;48.492;9.184;2023-08-12T05:48:58;10.90;;;5.00;;
1296;SDS011;641;48.492;9.184;2023-08-12T05:51:23;9.50;;;4.90;;
1296;SDS011;641;48.492;9.184;2023-08-12T05:53:49;9.90;;;4.83;;
1296;SDS011;641;48.492;9.184;2023-08-12T05:56:15;10.67;;;5.97;;
1296;SDS011;641;48.492;9.184;2023-08-12T05:58:40;10.60;;;4.87;;
1296;SDS011;641;48.492;9.184;2023-08-12T06:01:06;11.67;;;4.63;;
1296;SDS011;641;48.492;9.184;2023-08-12T06:03:31;10.07;;;4.87;;
1296;SDS011;641;48.492;9.184;2023-08-12T06:05:57;10.20;;;5.20;;
1296;SDS011;641;48.492;9.184;2023-08-12T06:08:23;12.00;;;5.30;;
1296;SDS011;641;48.492;9.184;2023-08-12T06:10:48;10.57;;;5.67;;
1296;SDS011;641;48.492;9.184;2023-08-12T06:13:14;11.93;;;4.57;;
1296;SDS011;641;48.492;9.184;2023-08-12T06:15:39;11.17;;;4.37;;
1296;SDS011;641;48.492;9.184;2023-08-12T06:18:05;13.93;;;5.90;;
1296;SDS011;641;48.492;9.184;2023-08-12T06:20:31;11.70;;;5.60;;
1296;SDS011;641;48.492;9.184;2023-08-12T06:22:56;14.83;;;4.80;;
1296;SDS011;641;48.492;9.184;2023-08-12T06:25:22;10.87;;;5.00;;
1296;SDS011;641;48.492;9.184;2023-08-12T06:27:47;13.17;;;5.40;;
1296;SDS011;641;48.492;9.184;2023-08-12T06:30:13;9.90;;;5.07;;
1296;SDS011;641;48.492;9.184;2023-08-12T06:32:39;12.93;;;4.83;;
1296;SDS011;641;48.492;9.184;2023-08-12T06:35:05;10.57;;;5.07;;
1296;SDS011;641;48.492;9.184;2023-08-12T06:37:31;11.10;;;5.30;;
1296;SDS011;641;48.492;9.184;2023-08-12T06:39:57;12.10;;;4.57;;
1296;SDS011;641;48.492;9.184;2023-08-12T06:42:22;11.03;;;4.43;;
1296;SDS011;641;48.492;9.184;2023-08-12T06:44:56;11.10;;;4.83;;
1296;SDS011;641;48.492;9.184;2023-08-12T06:47:22;9.40;;;4.30;;
1296;SDS011;641;48.492;9.184;2023-08-12T06:49:48;8.70;;;4.10;;
1296;SDS011;641;48.492;9.184;2023-08-12T06:52:14;9.63;;;5.57;;
1296;SDS011;641;48.492;9.184;2023-08-12T06:54:41;11.00;;;5.00;;
1296;SDS011;641;48.492;9.184;2023-08-12T06:57:07;9.60;;;5.07;;
1296;SDS011;641;48.492;9.184;2023-08-12T06:59:32;9.47;;;4.17;;
1296;SDS011;641;48.492;9.184;2023-08-12T07:01:58;9.80;;;4.60;;
1296;SDS011;641;48.492;9.184;2023-08-12T07:04:23;10.90;;;4.43;;
1296;SDS011;641;48.492;9.184;2023-08-12T07:06:49;9.97;;;5.10;;
1296;SDS011;641;48.492;9.184;2023-08-12T07:09:14;12.30;;;5.40;;
1296;SDS011;641;48.492;9.184;2023-08-12T07:11:40;11.03;;;4.60;;
1296;SDS011;641;48.492;9.184;2023-08-12T07:14:05;10.13;;;4.83;;
1296;SDS011;641;48.492;9.184;2023-08-12T07:16:31;9.97;;;5.07;;
1296;SDS011;641;48.492;9.184;2023-08-12T07:18:56;10.13;;;4.97;;
1296;SDS011;641;48.492;9.184;2023-08-12T07:21:22;9.53;;;4.80;;
1296;SDS011;641;48.492;9.184;2023-08-12T07:23:48;9.97;;;4.67;;
1296;SDS011;641;48.492;9.184;2023-08-12T07:26:13;13.87;;;5.57;;
1296;SDS011;641;48.492;9.184;2023-08-12T07:28:39;9.73;;;5.27;;
1296;SDS011;641;48.492;9.184;2023-08-12T07:31:05;10.20;;;5.47;;
1296;SDS011;641;48.492;9.184;2023-08-12T07:33:31;8.70;;;4.60;;
1296;SDS011;641;48.492;9.184;2023-08-12T07:35:56;10.83;;;4.40;;
1296;SDS011;641;48.492;9.184;2023-08-12T07:38:22;10.50;;;4.50;;
1296;SDS011;641;48.492;9.184;2023-08-12T07:40:50;10.43;;;5.30;;
1296;SDS011;641;48.492;9.184;2023-08-12T07:43:16;10.87;;;4.67;;
1296;SDS011;641;48.492;9.184;2023-08-12T07:45:41;10.00;;;4.60;;
1296;SDS011;641;48.492;9.184;2023-08-12T07:48:07;12.20;;;4.47;;
1296;SDS011;641;48.492;9.184;2023-08-12T07:50:32;9.27;;;4.60;;
1296;SDS011;641;48.492;9.184;2023-08-12T07:52:58;10.97;;;4.80;;
1296;SDS011;641;48.492;9.184;2023-08-12T07:55:24;10.53;;;5.10;;
1296;SDS011;641;48.492;9.184;2023-08-12T07:57:49;9.90;;;4.30;;
1296;SDS011;641;48.492;9.184;2023-08-12T08:00:15;10.80;;;4.57;;
1296;SDS011;641;48.492;9.184;2023-08-12T08:02:40;10.67;;;3.83;;
1296;SDS011;641;48.492;9.184;2023-08-12T08:05:06;9.17;;;4.30;;
1296;SDS011;641;48.492;9.184;2023-08-12T08:07:32;10.20;;;4.30;;
1296;SDS011;641;48.492;9.184;2023-08-12T08:09:57;8.90;;;4.27;;
1296;SDS011;641;48.492;9.184;2023-08-12T08:12:23;11.17;;;4.33;;
1296;SDS011;641;48.492;9.184;2023-08-12T08:14:49;8.43;;;4.07;;
1296;SDS011;641;48.492;9.184;2023-08-12T08:17:15;8.90;;;4.23;;
1296;SDS011;641;48.492;9.184;2023-08-12T08:19:40;8.77;;;4.20;;
1296;SDS011;641;48.492;9.184;2023-08-12T08:22:06;8.73;;;4.27;;
1296;SDS011;641;48.492;9.184;2023-08-12T08:24:31;9.27;;;3.90;;
1296;SDS011;641;48.492;9.184;2023-08-12T08:26:57;8.33;;;3.87;;
1296;SDS011;641;48.492;9.184;2023-08-12T08:29:22;8.50;;;3.47;;
1296;SDS011;641;48.492;9.184;2023-08-12T08:31:48;9.70;;;4.67;;
1296;SDS011;641;48.492;9.184;2023-08-12T08:34:14;10.33;;;4.30;;
1296;SDS011;641;48.492;9.184;2023-08-12T08:36:40;9.90;;;3.80;;
1296;SDS011;641;48.492;9.184;2023-08-12T08:39:05;10.10;;;4.27;;
1296;SDS011;641;48.492;9.184;2023-08-12T08:41:31;10.00;;;3.87;;
1296;SDS011;641;48.492;9.184;2023-08-12T08:44:02;9.80;;;3.70;;
1296;SDS011;641;48.492;9.184;2023-08-12T08:46:30;9.03;;;4.40;;
1296;SDS011;641;48.492;9.184;2023-08-12T08:48:57;8.90;;;4.03;;
1296;SDS011;641;48.492;9.184;2023-08-12T08:51:25;9.67;;;3.70;;
1296;SDS011;641;48.492;9.184;2023-08-12T08:53:50;9.10;;;3.90;;
1296;SDS011;641;48.492;9.184;2023-08-12T08:56:19;8.23;;;3.70;;
1296;SDS011;641;48.492;9.184;2023-08-12T08:58:46;8.17;;;3.73;;
1296;SDS011;641;48.492;9.184;2023-08-12T09:01:12;8.37;;;3.70;;
1296;SDS011;641;48.492;9.184;2023-08-12T09:03:39;10.40;;;3.30;;
1296;SDS011;641;48.492;9.184;2023-08-12T09:06:05;10.70;;;3.80;;
1296;SDS011;641;48.492;9.184;2023-08-12T09:08:32;8.60;;;3.87;;
1296;SDS011;641;48.492;9.184;2023-08-12T09:10:59;9.67;;;3.60;;
1296;SDS011;641;48.492;9.184;2023-08-12T09:13:26;8.60;;;3.70;;
1296;SDS011;641;48.492;9.184;2023-08-12T09:15:52;9.57;;;4.00;;
1296;SDS011;641;48.492;9.184;2023-08-12T09:18:18;11.40;;;4.10;;
1296;SDS011;641;48.492;9.184;2023-08-12T09:20:44;11.03;;;3.83;;
1296;SDS011;641;48.492;9.184;2023-08-12T09:23:10;9.60;;;3.70;;
1296;SDS011;641;48.492;9.184;2023-08-12T09:25:43;11.40;;;4.00;;
1296;SDS011;641;48.492;9.184;2023-08-12T09:28:10;8.33;;;3.53;;
1296;SDS011;641;48.492;9.184;2023-08-12T09:30:37;8.87;;;3.50;;
1296;SDS011;641;48.492;9.184;2023-08-12T09:33:04;8.87;;;3.57;;
1296;SDS011;641;48.492;9.184;2023-08-12T09:35:38;11.13;;;3.87;;
1296;SDS011;641;48.492;9.184;2023-08-12T09:38:06;8.60;;;3.73;;
1296;SDS011;641;48.492;9.184;2023-08-12T09:40:33;10.73;;;5.00;;
1296;SDS011;641;48.492;9.184;2023-08-12T09:43:00;12.57;;;4.80;;
1296;SDS011;641;48.492;9.184;2023-08-12T09:45:26;11.23;;;5.00;;
1296;SDS011;641;48.492;9.184;2023-08-12T09:47:52;10.80;;;4.63;;
1296;SDS011;641;48.492;9.184;2023-08-12T09:50:20;10.43;;;3.87;;
1296;SDS011;641;48.492;9.184;2023-08-12T09:52:50;9.53;;;3.80;;
1296;SDS011;641;48.492;9.184;2023-08-12T09:55:17;9.97;;;3.30;;
1296;SDS011;641;48.492;9.184;2023-08-12T09:57:47;9.03;;;3.63;;
1296;SDS011;641;48.492;9.184;2023-08-12T10:00:15;8.90;;;3.37;;
1296;SDS011;641;48.492;9.184;2023-08-12T10:02:43;9.80;;;3.97;;
1296;SDS011;641;48.492;9.184;2023-08-12T10:05:10;9.10;;;3.57;;
1296;SDS011;641;48.492;9.184;2023-08-12T10:07:37;8.40;;;3.60;;
1296;SDS011;641;48.492;9.184;2023-08-12T10:10:05;9.43;;;3.80;;
1296;SDS011;641;48.492;9.184;2023-08-12T10:12:32;9.30;;;3.87;;
1296;SDS011;641;48.492;9.184;2023-08-12T10:14:58;9.50;;;3.30;;
1296;SDS011;641;48.492;9.184;2023-08-12T10:17:25;8.40;;;3.40;;
1296;SDS011;641;48.492;9.184;2023-08-12T10:19:57;7.97;;;3.20;;
1296;SDS011;641;48.492;9.184;2023-08-12T10:22:24;8.30;;;3.50;;
1296;SDS011;641;48.492;9.184;2023-08-12T10:24:51;8.00;;;3.13;;
1296;SDS011;641;48.492;9.184;2023-08-12T10:27:17;8.93;;;3.33;;
1296;SDS011;641;48.492;9.184;2023-08-12T10:29:43;8.97;;;2.90;;
1296;SDS011;641;48.492;9.184;2023-08-12T10:32:10;7.73;;;2.70;;
1296;SDS011;641;48.492;9.184;2023-08-12T10:34:37;8.50;;;3.20;;
1296;SDS011;641;48.492;9.184;2023-08-12T10:37:03;10.03;;;3.30;;
1296;SDS011;641;48.492;9.184;2023-08-12T10:39:33;10.60;;;3.53;;
1296;SDS011;641;48.492;9.184;2023-08-12T10:41:59;9.13;;;3.10;;
1296;SDS011;641;48.492;9.184;2023-08-12T10:44:49;9.73;;;3.40;;
1296;SDS011;641;48.492;9.184;2023-08-12T10:47:16;10.30;;;3.73;;
1296;SDS011;641;48.492;9.184;2023-08-12T10:49:42;8.60;;;3.33;;
1296;SDS011;641;48.492;9.184;2023-08-12T10:57:51;8.70;;;3.30;;
1296;SDS011;641;48.492;9.184;2023-08-12T11:00:27;10.50;;;3.00;;
1296;SDS011;641;48.492;9.184;2023-08-12T11:02:57;7.77;;;2.53;;
1296;SDS011;641;48.492;9.184;2023-08-12T11:05:23;10.37;;;3.00;;
1296;SDS011;641;48.492;9.184;2023-08-12T11:07:59;9.23;;;2.93;;
1296;SDS011;641;48.492;9.184;2023-08-12T11:10:31;11.57;;;3.10;;
1296;SDS011;641;48.492;9.184;2023-08-12T11:12:59;8.00;;;2.63;;
1296;SDS011;641;48.492;9.184;2023-08-12T11:15:31;12.40;;;3.30;;
1296;SDS011;641;48.492;9.184;2023-08-12T11:17:59;9.80;;;3.03;;
1296;SDS011;641;48.492;9.184;2023-08-12T11:20:34;8.00;;;2.23;;
1296;SDS011;641;48.492;9.184;2023-08-12T11:23:00;7.83;;;2.43;;
1296;SDS011;641;48.492;9.184;2023-08-12T11:25:30;7.50;;;2.50;;
1296;SDS011;641;48.492;9.184;2023-08-12T11:27:57;7.40;;;2.30;;
1296;SDS011;641;48.492;9.184;2023-08-12T11:30:24;8.60;;;2.03;;
1296;SDS011;641;48.492;9.184;2023-08-12T11:32:51;7.57;;;2.10;;
1296;SDS011;641;48.492;9.184;2023-08-12T11:35:18;8.70;;;2.60;;
1296;SDS011;641;48.492;9.184;2023-08-12T11:37:46;8.43;;;1.97;;
1296;SDS011;641;48.492;9.184;2023-08-12T11:40:16;8.37;;;1.83;;
1296;SDS011;641;48.492;9.184;2023-08-12T11:42:43;8.53;;;2.03;;
1296;SDS011;641;48.492;9.184;2023-08-12T11:45:09;7.77;;;2.13;;
1296;SDS011;641;48.492;9.184;2023-08-12T11:47:36;10.40;;;2.10;;
1296;SDS011;641;48.492;9.184;2023-08-12T11:50:06;7.80;;;2.07;;
1296;SDS011;641;48.492;9.184;2023-08-12T11:52:33;7.40;;;2.53;;
1296;SDS011;641;48.492;9.184;2023-08-12T11:55:00;9.00;;;2.17;;
1296;SDS011;641;48.492;9.184;2023-08-12T11:57:26;8.30;;;2.40;;
1296;SDS011;641;48.492;9.184;2023-08-12T11:59:58;7.67;;;2.37;;
1296;SDS011;641;48.492;9.184;2023-08-12T12:02:24;7.83;;;2.23;;
1296;SDS011;641;48.492;9.184;2023-08-12T12:04:53;8.20;;;2.40;;
1296;SDS011;641;48.492;9.184;2023-08-12T12:07:23;10.60;;;2.37;;
1296;SDS011;641;48.492;9.184;2023-08-12T12:09:51;8.10;;;2.23;;
1296;SDS011;641;48.492;9.184;2023-08-12T12:12:17;9.00;;;3.47;;
1296;SDS011;641;48.492;9.184;2023-08-12T12:14:46;7.77;;;2.70;;
1296;SDS011;641;48.492;9.184;2023-08-12T12:17:14;9.43;;;3.03;;
1296;SDS011;641;48.492;9.184;2023-08-12T12:19:40;7.70;;;2.50;;
1296;SDS011;641;48.492;9.184;2023-08-12T12:22:06;8.40;;;2.63;;
1296;SDS011;641;48.492;9.184;2023-08-12T12:24:38;8.03;;;2.40;;
1296;SDS011;641;48.492;9.184;2023-08-12T12:27:10;10.70;;;3.03;;
1296;SDS011;641;48.492;9.184;2023-08-12T12:29:36;7.80;;;2.80;;
1296;SDS011;641;48.492;9.184;2023-08-12T12:32:01;7.60;;;2.57;;
1296;SDS011;641;48.492;9.184;2023-08-12T12:34:27;7.97;;;2.73;;
1296;SDS011;641;48.492;9.184;2023-08-12T12:36:52;8.00;;;3.07;;
1296;SDS011;641;48.492;9.184;2023-08-12T12:39:18;8.00;;;2.70;;
1296;SDS011;641;48.492;9.184;2023-08-12T12:41:44;8.10;;;2.53;;
1296;SDS011;641;48.492;9.184;2023-08-12T12:44:10;9.63;;;2.73;;
1296;SDS011;641;48.492;9.184;2023-08-12T12:46:35;9.90;;;3.10;;
1296;SDS011;641;48.492;9.184;2023-08-12T12:49:01;10.07;;;3.17;;
1296;SDS011;641;48.492;9.184;2023-08-12T12:51:26;10.50;;;3.80;;
1296;SDS011;641;48.492;9.184;2023-08-12T12:53:53;11.10;;;3.63;;
1296;SDS011;641;48.492;9.184;2023-08-12T12:56:18;12.97;;;3.90;;
1296;SDS011;641;48.492;9.184;2023-08-12T12:58:44;9.70;;;4.00;;
1296;SDS011;641;48.492;9.184;2023-08-12T13:01:10;16.40;;;4.23;;
1296;SDS011;641;48.492;9.184;2023-08-12T13:03:35;11.60;;;4.70;;
1296;SDS011;641;48.492;9.184;2023-08-12T13:06:01;11.03;;;3.67;;
1296;SDS011;641;48.492;9.184;2023-08-12T13:08:27;9.93;;;4.33;;
1296;SDS011;641;48.492;9.184;2023-08-12T13:10:53;14.83;;;5.00;;
1296;SDS011;641;48.492;9.184;2023-08-12T13:13:19;13.23;;;5.60;;
1296;SDS011;641;48.492;9.184;2023-08-12T13:15:45;11.23;;;4.43;;
1296;SDS011;641;48.492;9.184;2023-08-12T13:18:11;10.77;;;4.37;;
1296;SDS011;641;48.492;9.184;2023-08-12T13:20:37;10.50;;;4.57;;
1296;SDS011;641;48.492;9.184;2023-08-12T13:23:03;12.00;;;5.27;;
1296;SDS011;641;48.492;9.184;2023-08-12T13:25:30;19.07;;;5.77;;
1296;SDS011;641;48.492;9.184;2023-08-12T13:27:57;12.67;;;5.73;;
1296;SDS011;641;48.492;9.184;2023-08-12T13:30:23;14.60;;;5.73;;
1296;SDS011;641;48.492;9.184;2023-08-12T13:32:49;13.00;;;5.67;;
1296;SDS011;641;48.492;9.184;2023-08-12T13:35:16;16.23;;;6.73;;
1296;SDS011;641;48.492;9.184;2023-08-12T13:37:42;11.47;;;5.53;;
1296;SDS011;641;48.492;9.184;2023-08-12T13:40:08;13.33;;;5.53;;
1296;SDS011;641;48.492;9.184;2023-08-12T13:42:34;12.30;;;5.00;;
1296;SDS011;641;48.492;9.184;2023-08-12T13:45:00;9.43;;;4.10;;
1296;SDS011;641;48.492;9.184;2023-08-12T13:47:25;10.30;;;4.77;;
1296;SDS011;641;48.492;9.184;2023-08-12T13:49:51;13.27;;;5.23;;
1296;SDS011;641;48.492;9.184;2023-08-12T13:52:16;9.60;;;4.20;;
1296;SDS011;641;48.492;9.184;2023-08-12T13:54:42;10.37;;;4.90;;
1296;SDS011;641;48.492;9.184;2023-08-12T13:57:08;12.00;;;4.73;;
1296;SDS011;641;48.492;9.184;2023-08-12T13:59:33;10.77;;;4.67;;
1296;SDS011;641;48.492;9.184;2023-08-12T14:01:59;9.23;;;4.23;;
1296;SDS011;641;48.492;9.184;2023-08-12T14:04:24;12.13;;;3.80;;
1296;SDS011;641;48.492;9.184;2023-08-12T14:06:50;11.87;;;4.50;;
1296;SDS011;641;48.492;9.184;2023-08-12T14:09:15;11.87;;;4.30;;
1296;SDS011;641;48.492;9.184;2023-08-12T14:11:43;12.03;;;3.77;;
1296;SDS011;641;48.492;9.184;2023-08-12T14:14:08;11.27;;;4.00;;
1296;SDS011;641;48.492;9.184;2023-08-12T14:16:35;8.67;;;2.97;;
1296;SDS011;641;48.492;9.184;2023-08-12T14:19:00;7.60;;;2.93;;
1296;SDS011;641;48.492;9.184;2023-08-12T14:21:26;8.40;;;3.30;;
1296;SDS011;641;48.492;9.184;2023-08-12T14:23:52;10.47;;;3.40;;
1296;SDS011;641;48.492;9.184;2023-08-12T14:26:17;8.80;;;2.90;;
1296;SDS011;641;48.492;9.184;2023-08-12T14:28:43;9.03;;;2.73;;
1296;SDS011;641;48.492;9.184;2023-08-12T14:31:08;8.80;;;3.30;;
1296;SDS011;641;48.492;9.184;2023-08-12T14:33:34;7.60;;;2.70;;
1296;SDS011;641;48.492;9.184;2023-08-12T14:36:02;7.87;;;2.97;;
1296;SDS011;641;48.492;9.184;2023-08-12T14:38:28;11.23;;;3.07;;
1296;SDS011;641;48.492;9.184;2023-08-12T14:40:53;8.03;;;3.00;;
1296;SDS011;641;48.492;9.184;2023-08-12T14:43:19;8.83;;;3.00;;
1296;SDS011;641;48.492;9.184;2023-08-12T14:45:45;8.37;;;3.33;;
1296;SDS011;641;48.492;9.184;2023-08-12T14:48:11;11.47;;;3.60;;
1296;SDS011;641;48.492;9.184;2023-08-12T14:50:39;10.23;;;3.27;;
1296;SDS011;641;48.492;9.184;2023-08-12T14:53:05;10.83;;;3.40;;
1296;SDS011;641;48.492;9.184;2023-08-12T14:55:30;11.70;;;3.23;;
1296;SDS011;641;48.492;9.184;2023-08-12T14:57:56;8.30;;;2.97;;
1296;SDS011;641;48.492;9.184;2023-08-12T15:00:21;10.40;;;2.93;;
1296;SDS011;641;48.492;9.184;2023-08-12T15:02:47;9.00;;;3.30;;
1296;SDS011;641;48.492;9.184;2023-08-12T15:05:13;8.97;;;2.97;;
1296;SDS011;641;48.492;9.184;2023-08-12T15:07:38;8.00;;;3.20;;
1296;SDS011;641;48.492;9.184;2023-08-12T15:10:04;7.83;;;2.97;;
1296;SDS011;641;48.492;9.184;2023-08-12T15:12:30;9.00;;;3.40;;
1296;SDS011;641;48.492;9.184;2023-08-12T15:14:56;11.13;;;3.20;;
1296;SDS011;641;48.492;9.184;2023-08-12T15:17:22;8.23;;;3.10;;
1296;SDS011;641;48.492;9.184;2023-08-12T15:19:47;10.00;;;3.10;;
1296;SDS011;641;48.492;9.184;2023-08-12T15:22:13;8.77;;;3.03;;